Time;durP1;ratioP1;P1;durP2;ratioP2;P2;SDS_P1;SDS_P2;PMS_P1;PMS_P2;Temp;Humidity;BMP_temperature;BMP_pressure;BME280_temperature;BME280_humidity;BME280_pressure;Samples;Min_cycle;Max_cycle;Signal;HPM_P1;HPM_P2
2024/01/09 00:00:37;;;;;;;131.30;55.00;;;;;;;-13.49;63.74;102667.58;110999;244;38349;-67
2024/01/09 00:03:33;;;;;;;151.90;61.70;;;;;;;-13.58;63.73;102670.60;110831;244;174048;-67
2024/01/09 00:06:21;;;;;;;151.30;61.50;;;;;;;-13.58;63.92;102665.75;110951;244;39491;-67
2024/01/09 00:08:58;;;;;;;151.90;62.60;;;;;;;-13.63;63.94;102658.23;110938;245;39767;-67
2024/01/09 00:11:33;;;;;;;142.70;59.20;;;;;;;-13.68;63.96;102654.54;110924;245;38314;-67
2024/01/09 00:14:07;;;;;;;130.00;55.70;;;;;;;-13.73;64.03;102651.36;110956;244;38387;-67
2024/01/09 00:16:43;;;;;;;103.20;46.90;;;;;;;-13.79;64.22;102649.48;110877;244;38544;-67
2024/01/09 00:19:20;;;;;;;96.40;44.10;;;;;;;-13.78;64.32;102650.19;110914;244;38882;-67
2024/01/09 00:21:59;;;;;;;91.70;40.70;;;;;;;-13.84;64.33;102652.14;110811;244;176758;-67
2024/01/09 00:24:37;;;;;;;86.00;38.30;;;;;;;-13.86;64.42;102651.64;111006;244;38332;-68
2024/01/09 00:27:17;;;;;;;85.80;39.80;;;;;;;-13.86;64.57;102653.66;110959;244;39812;-67
2024/01/09 00:29:59;;;;;;;81.50;38.20;;;;;;;-13.87;64.61;102650.16;110960;245;38367;-67
2024/01/09 00:32:35;;;;;;;78.40;37.10;;;;;;;-13.87;64.77;102651.69;110934;244;38790;-67
2024/01/09 00:35:15;;;;;;;71.30;34.60;;;;;;;-13.81;64.95;102650.30;110898;245;38463;-67
2024/01/09 00:37:52;;;;;;;74.80;36.00;;;;;;;-13.81;64.81;102647.42;110953;244;38402;-68
2024/01/09 00:40:28;;;;;;;72.20;35.40;;;;;;;-13.78;64.91;102645.52;110988;244;40162;-68
2024/01/09 00:43:03;;;;;;;73.40;35.60;;;;;;;-13.78;64.94;102646.38;110945;244;39522;-68
2024/01/09 00:45:37;;;;;;;67.90;32.90;;;;;;;-13.80;64.92;102646.13;111012;244;39096;-67
2024/01/09 00:48:21;;;;;;;72.30;35.10;;;;;;;-13.79;64.98;102645.45;110967;244;38748;-68
2024/01/09 00:51:05;;;;;;;68.60;34.20;;;;;;;-13.76;64.92;102641.98;110931;244;38626;-68
2024/01/09 00:53:41;;;;;;;71.10;34.00;;;;;;;-13.75;64.68;102640.74;110914;244;38802;-65
2024/01/09 00:56:20;;;;;;;73.00;34.00;;;;;;;-13.80;64.68;102644.15;110935;244;38722;-67
2024/01/09 00:58:57;;;;;;;67.60;32.80;;;;;;;-13.82;64.72;102645.61;110937;244;38332;-66
2024/01/09 01:01:36;;;;;;;74.00;33.20;;;;;;;-13.84;64.79;102654.16;110955;244;38395;-66
2024/01/09 01:04:21;;;;;;;63.80;31.70;;;;;;;-13.80;64.80;102650.01;110954;244;39856;-66
2024/01/09 01:06:59;;;;;;;68.60;32.90;;;;;;;-13.78;64.60;102649.88;110873;244;38386;-66
2024/01/09 01:09:33;;;;;;;69.00;32.90;;;;;;;-13.82;64.63;102650.35;110932;244;38330;-66
2024/01/09 01:12:09;;;;;;;70.10;33.40;;;;;;;-13.83;64.67;102646.95;110877;244;41424;-66
2024/01/09 01:14:47;;;;;;;68.10;33.00;;;;;;;-13.84;64.61;102649.02;110938;244;38478;-66
2024/01/09 01:17:23;;;;;;;65.30;32.70;;;;;;;-13.84;64.82;102646.14;110959;244;39131;-66
2024/01/09 01:19:59;;;;;;;66.60;32.10;;;;;;;-13.84;64.81;102651.12;110944;244;38609;-67
2024/01/09 01:22:37;;;;;;;67.40;32.80;;;;;;;-13.86;64.71;102651.95;110895;244;39613;-66
2024/01/09 01:25:12;;;;;;;64.50;32.30;;;;;;;-13.89;64.87;102655.74;110970;244;38346;-66
2024/01/09 01:27:46;;;;;;;80.90;39.20;;;;;;;-13.84;65.03;102659.76;110812;244;174018;-67
2024/01/09 01:30:22;;;;;;;84.70;41.70;;;;;;;-13.82;64.71;102661.80;110959;244;38597;-67
2024/01/09 01:32:59;;;;;;;89.90;43.80;;;;;;;-13.83;64.64;102662.54;110924;244;40380;-67
2024/01/09 01:35:36;;;;;;;86.70;43.10;;;;;;;-13.86;64.25;102662.71;110973;244;38364;-66
2024/01/09 01:38:12;;;;;;;85.10;41.50;;;;;;;-13.92;64.34;102665.46;110842;244;174022;-67
2024/01/09 01:40:51;;;;;;;83.90;40.40;;;;;;;-13.97;64.45;102662.30;110828;244;176803;-67
2024/01/09 01:43:25;;;;;;;83.40;39.40;;;;;;;-13.99;64.51;102660.38;110992;244;38933;-66
2024/01/09 01:46:02;;;;;;;83.50;39.50;;;;;;;-13.97;64.67;102662.46;110960;244;38514;-66
2024/01/09 01:48:36;;;;;;;89.20;41.10;;;;;;;-13.95;64.65;102662.77;110990;244;38899;-67
2024/01/09 01:51:16;;;;;;;81.20;39.50;;;;;;;-13.98;64.59;102663.67;110942;244;39466;-67
2024/01/09 01:53:53;;;;;;;86.30;41.00;;;;;;;-14.04;64.64;102661.60;110962;244;38985;-67
2024/01/09 01:56:29;;;;;;;83.80;40.50;;;;;;;-14.05;64.62;102669.26;110945;244;38388;-66
2024/01/09 01:59:09;;;;;;;82.40;41.20;;;;;;;-14.06;64.72;102670.86;108676;244;3013854;-66
2024/01/09 02:01:44;;;;;;;94.10;44.10;;;;;;;-14.03;64.91;102672.14;108662;244;3027837;-66
2024/01/09 02:04:20;;;;;;;98.00;43.80;;;;;;;-14.00;64.91;102671.71;110963;244;38574;-66
2024/01/09 02:06:56;;;;;;;108.70;48.30;;;;;;;-14.00;64.90;102672.07;110938;244;38664;-66
2024/01/09 02:09:33;;;;;;;115.50;50.50;;;;;;;-13.97;64.79;102675.87;110929;244;39597;-66
2024/01/09 02:12:10;;;;;;;110.20;52.10;;;;;;;-13.99;64.66;102674.13;110989;244;38817;-66
2024/01/09 02:14:45;;;;;;;118.80;54.00;;;;;;;-13.98;64.65;102679.46;110962;244;38355;-66
2024/01/09 02:17:20;;;;;;;112.70;49.70;;;;;;;-13.97;64.57;102678.23;111033;244;38820;-66
2024/01/09 02:19:56;;;;;;;120.70;53.70;;;;;;;-13.94;64.58;102679.89;110933;244;38331;-66
2024/01/09 02:22:32;;;;;;;113.10;49.70;;;;;;;-13.90;64.64;102680.56;110998;244;38414;-66
2024/01/09 02:25:10;;;;;;;120.30;53.20;;;;;;;-13.85;64.64;102680.30;110954;244;38422;-66
2024/01/09 02:27:51;;;;;;;119.20;52.20;;;;;;;-13.81;64.55;102679.61;110945;244;38323;-66
2024/01/09 02:30:25;;;;;;;123.80;53.40;;;;;;;-13.77;64.57;102681.20;110949;244;39474;-66
2024/01/09 02:32:59;;;;;;;114.40;52.10;;;;;;;-13.75;64.41;102677.46;110906;244;38751;-65
2024/01/09 02:35:38;;;;;;;117.20;53.40;;;;;;;-13.76;64.35;102676.58;110954;244;38313;-66
2024/01/09 02:38:14;;;;;;;115.70;52.40;;;;;;;-13.79;64.21;102677.52;110943;244;38388;-65
2024/01/09 02:40:52;;;;;;;118.60;54.00;;;;;;;-13.88;63.95;102679.77;110960;244;38344;-65
2024/01/09 02:43:27;;;;;;;115.10;52.70;;;;;;;-13.96;64.05;102684.71;110949;244;38754;-66
2024/01/09 02:46:04;;;;;;;119.90;52.80;;;;;;;-13.98;64.21;102684.05;110972;244;40018;-66
2024/01/09 02:48:41;;;;;;;116.60;51.90;;;;;;;-14.00;64.03;102685.02;110973;244;38358;-66
2024/01/09 02:51:18;;;;;;;110.60;48.50;;;;;;;-14.03;64.07;102681.98;110941;244;39739;-66
2024/01/09 02:53:58;;;;;;;114.80;52.00;;;;;;;-14.07;64.24;102681.81;110965;244;38245;-66
2024/01/09 02:56:37;;;;;;;108.90;49.90;;;;;;;-14.07;64.36;102679.98;110952;244;38806;-67
2024/01/09 02:59:15;;;;;;;102.00;47.80;;;;;;;-14.09;64.51;102678.39;110929;244;38315;-66
2024/01/09 03:01:55;;;;;;;108.80;49.20;;;;;;;-14.13;64.61;102678.91;110922;245;38427;-65
2024/01/09 03:04:34;;;;;;;106.30;47.60;;;;;;;-14.11;64.66;102675.89;110961;244;38840;-65
2024/01/09 03:07:13;;;;;;;107.00;48.00;;;;;;;-14.09;64.80;102674.08;111002;244;38750;-66
2024/01/09 03:09:49;;;;;;;;;;;;;;;-14.07;64.84;102676.80;110983;244;39541;-66
2024/01/09 03:12:26;;;;;;;101.80;45.70;;;;;;;-14.11;64.83;102677.75;110940;244;39689;-66
2024/01/09 03:15:01;;;;;;;109.20;49.10;;;;;;;-14.14;64.96;102679.05;110960;245;38450;-66
2024/01/09 03:17:38;;;;;;;102.60;47.70;;;;;;;-14.12;65.16;102679.67;110940;245;38731;-66
2024/01/09 03:20:14;;;;;;;108.10;48.70;;;;;;;-14.10;65.11;102678.77;110806;245;176807;-66
2024/01/09 03:22:49;;;;;;;101.20;47.70;;;;;;;-14.05;65.15;102681.69;110988;244;39791;-67
2024/01/09 03:25:26;;;;;;;95.90;45.10;;;;;;;-14.00;65.07;102684.14;110980;244;39475;-66
2024/01/09 03:28:06;;;;;;;98.70;45.90;;;;;;;-13.98;64.89;102686.82;110817;244;176778;-66
2024/01/09 03:30:43;;;;;;;96.20;45.60;;;;;;;-13.96;64.78;102688.04;110890;244;38342;-66
2024/01/09 03:33:20;;;;;;;103.00;46.20;;;;;;;-13.98;64.75;102685.48;110976;244;38312;-66
2024/01/09 03:36:00;;;;;;;95.90;45.30;;;;;;;-14.00;64.49;102686.30;110936;245;38497;-66
2024/01/09 03:38:36;;;;;;;91.90;44.80;;;;;;;-14.01;64.44;102686.75;110982;244;38411;-66
2024/01/09 03:41:11;;;;;;;95.20;45.30;;;;;;;-14.01;64.37;102685.71;110951;244;38956;-66
2024/01/09 03:43:47;;;;;;;101.50;44.60;;;;;;;-14.08;64.24;102684.69;110982;244;39642;-66
2024/01/09 03:46:21;;;;;;;98.50;44.40;;;;;;;-14.14;64.50;102684.64;110940;245;38823;-66
2024/01/09 03:48:58;;;;;;;98.90;45.80;;;;;;;-14.19;64.71;102680.81;110942;244;38340;-66
2024/01/09 03:51:33;;;;;;;95.10;45.60;;;;;;;-14.19;64.97;102681.58;110963;244;38252;-67
2024/01/09 03:54:07;;;;;;;102.60;47.00;;;;;;;-14.21;65.08;102682.41;110980;244;38362;-67
2024/01/09 03:56:48;;;;;;;95.10;43.90;;;;;;;-14.23;65.24;102681.58;110995;244;38622;-67
2024/01/09 03:59:22;;;;;;;92.20;42.90;;;;;;;-14.23;65.37;102678.20;110953;245;38349;-67
2024/01/09 04:01:56;;;;;;;90.90;41.50;;;;;;;-14.20;65.45;102682.17;110977;244;38543;-66
2024/01/09 04:04:40;;;;;;;87.20;41.40;;;;;;;-14.18;65.52;102681.73;110925;244;38729;-66
2024/01/09 04:07:21;;;;;;;85.00;41.50;;;;;;;-14.17;65.57;102683.02;110989;244;39570;-67
2024/01/09 04:09:59;;;;;;;84.40;40.40;;;;;;;-14.18;65.59;102682.75;110823;245;174051;-67
2024/01/09 04:12:37;;;;;;;87.90;40.40;;;;;;;-14.20;65.65;102681.19;110928;244;39607;-67
2024/01/09 04:15:13;;;;;;;83.40;40.80;;;;;;;-14.17;65.65;102679.30;110912;244;38810;-67
2024/01/09 04:17:50;;;;;;;88.20;42.50;;;;;;;-14.10;65.70;102679.45;110971;244;39701;-67
2024/01/09 04:20:28;;;;;;;85.70;40.90;;;;;;;-14.10;65.48;102677.50;110828;244;176883;-67
2024/01/09 04:23:04;;;;;;;89.80;40.40;;;;;;;-14.11;65.52;102677.04;110967;244;39447;-66
2024/01/09 04:25:42;;;;;;;88.30;38.80;;;;;;;-14.14;65.38;102680.78;110947;244;38851;-66
2024/01/09 04:28:21;;;;;;;81.70;39.50;;;;;;;-14.16;65.52;102679.96;110930;244;40024;-67
2024/01/09 04:30:59;;;;;;;80.90;37.40;;;;;;;-14.19;65.38;102675.58;110965;244;39562;-66
2024/01/09 04:33:36;;;;;;;77.70;37.40;;;;;;;-14.22;65.59;102674.42;110953;244;39925;-66
2024/01/09 04:36:17;;;;;;;79.00;37.60;;;;;;;-14.23;65.92;102672.38;110974;244;38557;-67
2024/01/09 04:38:51;;;;;;;72.20;34.60;;;;;;;-14.22;65.96;102670.64;110967;244;39579;-67
2024/01/09 04:41:28;;;;;;;67.60;33.50;;;;;;;-14.16;66.15;102672.20;110970;244;41189;-67
2024/01/09 04:44:03;;;;;;;74.40;34.40;;;;;;;-14.15;66.03;102670.79;110895;244;38552;-67
2024/01/09 04:46:41;;;;;;;70.40;35.10;;;;;;;-14.16;65.99;102668.06;110916;244;38864;-67
2024/01/09 04:49:20;;;;;;;71.60;33.20;;;;;;;-14.14;66.06;102669.42;110833;244;173693;-67
2024/01/09 04:51:56;;;;;;;73.20;35.30;;;;;;;-14.08;66.06;102666.80;110951;244;38388;-67
2024/01/09 04:54:35;;;;;;;70.90;32.90;;;;;;;-14.05;65.74;102668.40;110922;244;38832;-67
2024/01/09 04:57:10;;;;;;;74.70;35.00;;;;;;;-14.02;65.75;102670.36;110974;244;38649;-67
2024/01/09 04:59:44;;;;;;;70.30;34.70;;;;;;;-14.00;65.57;102671.21;110942;244;38812;-67
2024/01/09 05:02:23;;;;;;;65.90;32.70;;;;;;;-14.01;65.55;102671.09;110931;244;40312;-67
2024/01/09 05:04:58;;;;;;;66.70;32.80;;;;;;;-14.02;65.55;102673.86;110926;244;37947;-67
2024/01/09 05:07:36;;;;;;;70.20;33.10;;;;;;;-14.05;65.69;102673.95;110998;244;38349;-67
2024/01/09 05:10:15;;;;;;;65.10;31.60;;;;;;;-14.09;65.63;102669.34;110942;244;38433;-66
2024/01/09 05:12:55;;;;;;;68.90;33.70;;;;;;;-14.13;65.38;102669.14;110967;244;38582;-66
2024/01/09 05:15:29;;;;;;;66.20;31.80;;;;;;;-14.17;65.59;102668.06;110982;244;38670;-67
2024/01/09 05:18:09;;;;;;;62.60;30.80;;;;;;;-14.20;65.87;102670.00;110803;244;178575;-67
2024/01/09 05:20:45;;;;;;;61.10;29.60;;;;;;;-14.20;66.06;102675.48;110980;244;38565;-67
2024/01/09 05:23:26;;;;;;;70.40;32.90;;;;;;;-14.19;66.02;102676.58;110947;244;38730;-67
2024/01/09 05:26:07;;;;;;;61.80;31.00;;;;;;;-14.20;65.87;102680.90;110943;244;39499;-66
2024/01/09 05:28:46;;;;;;;62.80;31.60;;;;;;;-14.17;65.81;102684.52;110910;244;38845;-66
2024/01/09 05:31:23;;;;;;;62.80;30.30;;;;;;;-14.11;65.95;102683.23;110980;244;39136;-66
2024/01/09 05:34:02;;;;;;;63.70;30.60;;;;;;;-14.09;66.07;102684.17;111001;244;38475;-66
2024/01/09 05:36:42;;;;;;;66.50;32.40;;;;;;;-14.07;65.93;102682.34;110975;244;38887;-67
2024/01/09 05:39:21;;;;;;;60.90;30.50;;;;;;;-14.05;65.84;102681.36;110885;244;39255;-67
2024/01/09 05:42:00;;;;;;;60.80;29.20;;;;;;;-14.04;65.59;102676.86;110975;244;38764;-67
2024/01/09 05:44:35;;;;;;;64.80;30.90;;;;;;;-14.05;65.63;102676.64;110992;244;38568;-67
2024/01/09 05:47:13;;;;;;;68.30;32.20;;;;;;;-13.98;65.66;102674.83;110961;244;38577;-67
2024/01/09 05:49:56;;;;;;;59.50;29.60;;;;;;;-13.96;65.80;102677.52;110981;244;39142;-67
2024/01/09 05:52:34;;;;;;;60.60;29.40;;;;;;;-13.94;65.82;102679.23;110939;244;38348;-66
2024/01/09 05:55:09;;;;;;;62.10;28.80;;;;;;;-13.93;65.85;102680.43;110991;244;39668;-67
2024/01/09 05:57:48;;;;;;;57.30;28.70;;;;;;;-13.94;65.70;102680.98;110601;244;386353;-67
2024/01/09 06:00:28;;;;;;;61.30;30.90;;;;;;;-13.96;65.78;102680.86;110999;244;39229;-65
2024/01/09 06:03:03;;;;;;;56.20;30.00;;;;;;;-13.93;65.57;102682.70;111013;244;38566;-66
2024/01/09 06:05:40;;;;;;;58.20;30.30;;;;;;;-13.99;65.45;102688.59;110966;244;39726;-66
2024/01/09 06:08:20;;;;;;;61.00;29.50;;;;;;;-14.04;65.51;102697.17;110936;244;38575;-66
2024/01/09 06:10:58;;;;;;;57.90;28.40;;;;;;;-14.08;65.57;102697.96;110941;244;39583;-65
2024/01/09 06:13:37;;;;;;;62.80;30.50;;;;;;;-14.06;65.87;102702.88;110862;244;176528;-66
2024/01/09 06:16:15;;;;;;;66.20;32.40;;;;;;;-14.02;65.87;102701.70;110824;244;179167;-66
2024/01/09 06:18:51;;;;;;;64.10;31.40;;;;;;;-14.03;65.74;102707.36;110959;244;38472;-66
2024/01/09 06:21:28;;;;;;;62.10;30.90;;;;;;;-14.05;65.60;102707.81;110964;245;38605;-66
2024/01/09 06:24:07;;;;;;;64.70;31.10;;;;;;;-14.09;65.51;102713.70;110919;244;39893;-66
2024/01/09 06:26:41;;;;;;;66.90;31.30;;;;;;;-14.12;65.53;102715.73;110951;244;38569;-67
2024/01/09 06:29:19;;;;;;;61.70;30.70;;;;;;;-14.08;65.72;102719.23;110943;244;39476;-67
2024/01/09 06:31:56;;;;;;;69.40;32.70;;;;;;;-14.04;65.63;102718.69;110974;245;39447;-66
2024/01/09 06:34:36;;;;;;;65.80;29.40;;;;;;;-14.01;65.62;102719.40;110942;244;38239;-66
2024/01/09 06:37:13;;;;;;;63.20;30.90;;;;;;;-13.99;65.45;102717.39;110923;245;38452;-67
2024/01/09 06:39:52;;;;;;;60.60;31.10;;;;;;;-14.03;65.45;102716.23;110962;244;38301;-67
2024/01/09 06:42:27;;;;;;;66.70;31.70;;;;;;;-13.99;65.57;102718.09;110936;245;38306;-66
2024/01/09 06:45:08;;;;;;;68.00;33.90;;;;;;;-13.88;65.74;102711.15;110939;244;38321;-66
2024/01/09 06:47:42;;;;;;;73.20;36.50;;;;;;;-13.89;65.66;102714.55;110892;244;39688;-67
2024/01/09 06:50:23;;;;;;;76.90;36.70;;;;;;;-13.94;65.65;102714.63;110992;244;38570;-66
2024/01/09 06:53:02;;;;;;;82.10;40.00;;;;;;;-13.94;65.70;102717.83;110990;245;39779;-66
2024/01/09 06:55:38;;;;;;;76.80;36.20;;;;;;;-13.93;65.90;102717.66;110930;244;38311;-66
2024/01/09 06:58:13;;;;;;;76.60;36.30;;;;;;;-13.91;65.89;102717.04;110919;245;38698;-66
2024/01/09 07:00:54;;;;;;;76.60;35.80;;;;;;;-13.86;65.99;102720.10;110925;245;39805;-66
2024/01/09 07:03:34;;;;;;;68.40;32.10;;;;;;;-13.79;65.94;102721.27;110926;244;38301;-67
2024/01/09 07:06:11;;;;;;;63.40;30.70;;;;;;;-13.77;66.06;102728.45;110251;244;941740;-67
2024/01/09 07:08:48;;;;;;;64.70;31.60;;;;;;;-13.76;66.07;102732.09;110857;245;38580;-67
2024/01/09 07:11:28;;;;;;;64.00;30.90;;;;;;;-13.74;66.11;102735.83;110984;244;37977;-66
2024/01/09 07:14:07;;;;;;;65.70;31.10;;;;;;;-13.70;66.04;102737.39;110940;244;38318;-66
2024/01/09 07:16:41;;;;;;;60.50;28.60;;;;;;;-13.69;66.01;102737.70;110974;244;38288;-67
2024/01/09 07:19:16;;;;;;;60.80;29.60;;;;;;;-13.70;66.05;102737.09;110955;245;38646;-67
2024/01/09 07:21:54;;;;;;;63.50;31.60;;;;;;;-13.66;66.24;102740.69;110966;244;41439;-66
2024/01/09 07:24:34;;;;;;;63.10;30.10;;;;;;;-13.57;66.33;102739.32;110858;244;176764;-66
2024/01/09 07:27:15;;;;;;;63.40;31.60;;;;;;;-13.53;66.09;102741.58;110967;244;38057;-67
2024/01/09 07:29:56;;;;;;;57.40;29.50;;;;;;;-13.48;66.07;102738.19;110966;244;38609;-66
2024/01/09 07:32:32;;;;;;;59.40;30.50;;;;;;;-13.39;66.22;102742.04;110948;244;39667;-66
2024/01/09 07:35:12;;;;;;;63.70;30.70;;;;;;;-13.34;66.39;102743.27;110953;244;38307;-67
2024/01/09 07:37:46;;;;;;;61.60;31.60;;;;;;;-13.22;66.46;102746.06;110975;244;38432;-67
2024/01/09 07:40:24;;;;;;;59.80;30.30;;;;;;;-12.91;66.83;102742.90;110997;244;38318;-67
2024/01/09 07:43:07;;;;;;;61.00;32.90;;;;;;;-12.58;66.91;102740.83;110982;244;38467;-66
2024/01/09 07:45:43;;;;;;;65.10;32.20;;;;;;;-12.31;66.80;102743.25;110955;244;38427;-65
2024/01/09 07:48:17;;;;;;;66.50;33.30;;;;;;;-11.64;67.71;102741.54;110994;244;38374;-65
2024/01/09 07:50:57;;;;;;;65.20;35.60;;;;;;;-10.93;68.81;102741.08;110963;245;38268;-66
2024/01/09 07:53:36;;;;;;;74.40;39.50;;;;;;;-10.61;67.46;102739.13;110928;244;38543;-66
2024/01/09 07:56:24;;;;;;;78.70;40.50;;;;;;;-10.38;66.84;102745.94;110948;244;38449;-67
2024/01/09 07:59:01;;;;;;;90.30;44.20;;;;;;;-10.35;66.18;102747.00;110912;244;38490;-67
2024/01/09 08:01:36;;;;;;;88.10;42.20;;;;;;;-10.44;65.72;102746.61;110963;244;38272;-67
2024/01/09 08:04:14;;;;;;;92.70;44.80;;;;;;;-10.55;65.65;102747.17;110971;244;38525;-66
2024/01/09 08:06:50;;;;;;;96.70;46.20;;;;;;;-10.63;65.75;102750.45;110957;244;38258;-66
2024/01/09 08:09:30;;;;;;;87.80;40.40;;;;;;;-10.72;65.81;102752.66;110927;244;38340;-66
2024/01/09 08:12:09;;;;;;;85.30;40.90;;;;;;;-10.79;65.72;102752.57;110919;244;39096;-67
2024/01/09 08:14:43;;;;;;;82.30;38.00;;;;;;;-10.86;65.87;102758.89;110941;245;38441;-66
2024/01/09 08:17:19;;;;;;;84.50;40.80;;;;;;;-10.87;65.99;102756.09;110888;245;38236;-66
2024/01/09 08:19:55;;;;;;;87.60;39.10;;;;;;;-10.83;66.29;102749.22;110922;244;38706;-66
2024/01/09 08:22:32;;;;;;;83.70;39.10;;;;;;;-10.76;66.46;102750.48;110922;244;38420;-66
2024/01/09 08:25:09;;;;;;;80.20;39.20;;;;;;;-10.69;66.46;102753.13;110940;244;38277;-66
2024/01/09 08:27:53;;;;;;;79.50;38.30;;;;;;;-10.59;66.62;102752.63;110952;244;38377;-66
2024/01/09 08:30:27;;;;;;;80.30;38.70;;;;;;;-10.54;66.62;102752.24;110960;244;38865;-65
2024/01/09 08:33:07;;;;;;;78.90;36.30;;;;;;;-10.45;66.69;102752.96;110925;244;38440;-65
2024/01/09 08:35:46;;;;;;;78.80;37.00;;;;;;;-10.31;66.88;102754.80;110968;244;38544;-65
2024/01/09 08:38:26;;;;;;;77.60;37.30;;;;;;;-10.16;67.02;102759.05;110918;244;38309;-65
2024/01/09 08:41:10;;;;;;;79.60;38.00;;;;;;;-10.00;67.02;102758.08;110954;244;38973;-66
2024/01/09 08:43:46;;;;;;;76.80;38.60;;;;;;;-9.89;66.73;102754.91;110957;244;37796;-66
2024/01/09 08:46:23;;;;;;;83.60;40.40;;;;;;;-9.83;66.63;102757.95;110969;244;38253;-66
2024/01/09 08:48:57;;;;;;;83.10;39.30;;;;;;;-9.73;66.62;102757.23;110968;244;38513;-66
2024/01/09 08:51:35;;;;;;;83.40;41.20;;;;;;;-9.62;66.57;102756.95;110988;244;38431;-66
2024/01/09 08:54:10;;;;;;;86.90;43.40;;;;;;;-9.48;66.65;102752.02;110929;244;38240;-66
2024/01/09 08:56:48;;;;;;;85.20;41.80;;;;;;;-9.44;66.38;102754.19;110939;244;38248;-66
2024/01/09 08:59:25;;;;;;;86.00;41.00;;;;;;;-9.46;66.17;102756.62;111005;244;38379;-66
2024/01/09 09:02:01;;;;;;;79.10;39.80;;;;;;;-9.49;66.14;102763.27;110949;244;38264;-65
2024/01/09 09:04:44;;;;;;;82.90;41.20;;;;;;;-9.55;66.04;102761.60;110955;244;38271;-65
2024/01/09 09:07:24;;;;;;;85.10;41.30;;;;;;;-9.58;66.27;102757.42;110943;244;38268;-65
2024/01/09 09:10:01;;;;;;;84.40;40.90;;;;;;;-9.51;66.59;102750.77;110987;244;38386;-65
2024/01/09 09:12:38;;;;;;;80.80;37.50;;;;;;;-9.39;66.62;102750.25;110945;244;38466;-66
2024/01/09 09:15:13;;;;;;;78.60;37.00;;;;;;;-9.21;66.44;102751.45;110959;244;38299;-66
2024/01/09 09:17:52;;;;;;;78.50;39.20;;;;;;;-8.94;66.44;102750.60;110933;244;38376;-65
2024/01/09 09:20:27;;;;;;;76.00;37.10;;;;;;;-8.59;66.41;102747.88;110968;244;38255;-66
2024/01/09 09:23:06;;;;;;;71.00;35.00;;;;;;;-8.26;66.05;102744.70;110865;244;176240;-66
2024/01/09 09:25:41;;;;;;;80.20;39.70;;;;;;;-7.94;65.49;102738.60;110888;244;39484;-66
2024/01/09 09:28:19;;;;;;;;;;;;;;;-7.66;64.91;102735.95;110957;244;38259;-66
2024/01/09 09:30:53;;;;;;;79.10;40.30;;;;;;;-7.50;64.54;102740.67;110826;244;176195;-66
2024/01/09 09:33:31;;;;;;;81.80;41.90;;;;;;;-7.41;64.37;102742.84;110945;244;39675;-67
2024/01/09 09:36:12;;;;;;;82.90;41.60;;;;;;;-7.20;64.19;102742.20;110945;244;38313;-66
2024/01/09 09:38:55;;;;;;;85.10;42.00;;;;;;;-6.90;64.06;102741.94;110973;244;38447;-67
2024/01/09 09:41:32;;;;;;;84.50;43.10;;;;;;;-6.49;64.21;102745.84;110946;244;38528;-67
2024/01/09 09:44:07;;;;;;;85.90;43.50;;;;;;;-6.11;63.36;102743.70;110991;244;39530;-66
2024/01/09 09:46:43;;;;;;;89.00;43.60;;;;;;;-5.81;62.61;102739.02;110982;244;39514;-66
2024/01/09 09:49:20;;;;;;;84.10;43.00;;;;;;;-5.55;61.48;102732.57;110961;244;39207;-68
2024/01/09 09:51:56;;;;;;;80.00;41.50;;;;;;;-5.27;61.15;102728.13;110967;244;38736;-66
2024/01/09 09:54:37;;;;;;;87.60;42.20;;;;;;;-4.96;60.88;102732.77;110991;244;38535;-66
2024/01/09 09:57:11;;;;;;;78.40;40.80;;;;;;;-4.64;60.34;102727.61;110939;244;38546;-67
2024/01/09 09:59:48;;;;;;;80.50;40.30;;;;;;;-4.35;59.62;102721.23;110946;244;38278;-67
2024/01/09 10:02:26;;;;;;;77.40;40.40;;;;;;;-4.07;59.00;102720.65;110881;244;175721;-68
2024/01/09 10:05:06;;;;;;;75.70;39.90;;;;;;;-3.80;58.69;102718.17;110969;244;38365;-68
2024/01/09 10:07:45;;;;;;;74.30;39.20;;;;;;;-3.49;57.69;102716.86;110851;244;39775;-67
2024/01/09 10:10:27;;;;;;;72.20;38.20;;;;;;;-3.28;56.99;102714.14;110959;244;38358;-68
2024/01/09 10:13:04;;;;;;;72.80;39.40;;;;;;;-3.16;55.82;102718.08;110994;244;39531;-69
2024/01/09 10:15:59;;;;;;;73.40;39.80;;;;;;;-3.04;54.97;102712.59;110986;244;39641;-68
2024/01/09 10:18:37;;;;;;;78.00;41.60;;;;;;;-2.86;55.50;102711.70;110945;244;38556;-68
2024/01/09 10:21:14;;;;;;;75.90;39.50;;;;;;;-2.63;54.91;102711.02;110960;244;38493;-69
2024/01/09 10:23:51;;;;;;;78.60;41.40;;;;;;;-2.41;54.64;102711.00;110938;244;38401;-68
2024/01/09 10:26:28;;;;;;;74.60;40.00;;;;;;;-2.27;53.62;102708.28;110951;244;38279;-69
2024/01/09 10:29:05;;;;;;;77.60;42.00;;;;;;;-2.13;53.44;102704.43;110942;244;39459;-68
2024/01/09 10:31:44;;;;;;;74.20;39.90;;;;;;;-1.97;53.45;102701.43;110973;244;38510;-68
2024/01/09 10:34:21;;;;;;;76.70;39.40;;;;;;;-1.98;53.13;102700.55;110961;244;40202;-68
2024/01/09 10:36:57;;;;;;;73.10;39.30;;;;;;;-2.18;52.84;102702.61;110997;245;39003;-67
2024/01/09 10:39:35;;;;;;;76.50;39.20;;;;;;;-2.51;52.45;102705.50;110939;244;39491;-69
2024/01/09 10:42:13;;;;;;;78.30;39.00;;;;;;;-2.90;52.70;102703.43;110930;244;38560;-67
2024/01/09 10:44:49;;;;;;;77.60;38.50;;;;;;;-3.29;52.90;102694.45;110896;244;38833;-67
2024/01/09 10:47:27;;;;;;;77.40;39.00;;;;;;;-3.63;53.02;102696.95;110977;244;38943;-67
2024/01/09 10:50:05;;;;;;;78.50;37.20;;;;;;;-3.98;53.74;102696.33;110940;244;38366;-67
2024/01/09 10:52:43;;;;;;;74.80;37.80;;;;;;;-4.25;54.15;102689.41;110942;244;38528;-66
2024/01/09 10:55:25;;;;;;;75.00;38.20;;;;;;;-4.52;54.32;102687.67;110950;244;38817;-66
2024/01/09 10:58:04;;;;;;;76.50;37.30;;;;;;;-4.72;54.70;102688.79;110933;244;38846;-67
2024/01/09 11:00:43;;;;;;;75.50;37.20;;;;;;;-5.00;54.85;102690.14;110974;244;40047;-67
2024/01/09 11:03:22;;;;;;;74.10;36.00;;;;;;;-5.20;55.39;102685.31;110953;244;38365;-67
2024/01/09 11:06:02;;;;;;;69.90;36.40;;;;;;;-5.38;55.12;102682.13;110999;244;38906;-66
2024/01/09 11:08:39;;;;;;;80.70;37.10;;;;;;;-5.58;55.38;102682.08;110970;244;38614;-66
2024/01/09 11:11:21;;;;;;;78.00;37.90;;;;;;;-5.75;55.82;102676.36;110970;244;38282;-66
2024/01/09 11:14:06;;;;;;;75.30;38.40;;;;;;;-5.91;56.07;102677.85;110922;244;38310;-66
2024/01/09 11:16:51;;;;;;;83.70;39.50;;;;;;;-6.03;56.25;102683.02;110981;244;39376;-67
2024/01/09 11:19:25;;;;;;;74.10;37.90;;;;;;;-6.13;56.68;102685.73;110945;244;38329;-67
2024/01/09 11:22:02;;;;;;;66.80;33.20;;;;;;;-6.25;56.84;102687.70;110982;244;38403;-67
2024/01/09 11:24:43;;;;;;;73.70;35.20;;;;;;;-6.29;56.98;102686.60;110991;244;38289;-67
2024/01/09 11:27:23;;;;;;;66.90;32.50;;;;;;;-6.26;57.45;102678.26;110913;244;38547;-66
2024/01/09 11:30:05;;;;;;;68.00;34.20;;;;;;;-6.21;57.53;102676.25;111002;245;38340;-67
2024/01/09 11:32:43;;;;;;;65.60;32.30;;;;;;;-6.13;57.56;102668.46;110943;244;38453;-68
2024/01/09 11:35:24;;;;;;;70.10;33.10;;;;;;;-6.06;57.60;102659.41;111004;245;39722;-67
2024/01/09 11:38:00;;;;;;;61.80;31.40;;;;;;;-5.97;57.40;102656.08;110957;244;38274;-67
2024/01/09 11:40:40;;;;;;;65.60;33.50;;;;;;;-5.89;57.39;102657.43;110933;244;38536;-67
2024/01/09 11:43:22;;;;;;;67.40;33.30;;;;;;;-5.80;56.89;102651.20;110953;244;38303;-66
2024/01/09 11:45:58;;;;;;;69.20;32.90;;;;;;;-5.82;56.83;102654.98;110992;244;38297;-65
2024/01/09 11:48:39;;;;;;;67.70;32.90;;;;;;;-5.83;57.03;102652.19;110956;244;38234;-66